Terminal Aerodrome Forecast
Issued by NWS State College, PA

Home | Current Version | Previous Version | Text Only | Print | Product List | Glossary On
Versions: 1 2 3 4 5 6 7 8 9 10 11 12 13 14 15 16 17 18 19 20 21 22 23 24 25 26 27 28 29
000
FTUS41 KCTP 050358 AAA
TAFIPT
TAF AMD
KIPT 050358Z 0504/0524 06009KT P6SM OVC050
     FM050600 05009KT 2SM -SN BR OVC010
     FM051300 27010KT 5SM BR OVC030
     FM051500 28012KT P6SM BKN045=

USA.gov is the U.S. government's official web portal to all federal, state and local government web resources and services.